Time;durP1;ratioP1;P1;durP2;ratioP2;P2;SDS_P1;SDS_P2;PMS_P1;PMS_P2;Temp;Humidity;BMP_temperature;BMP_pressure;BME280_temperature;BME280_humidity;BME280_pressure;Samples;Min_cycle;Max_cycle;Signal;HPM_P1;HPM_P2
2023/02/07 00:00:44;;;;;;;20.03;10.17;;;3.90;99.90;;;;;;5090222;28;20036;-70
2023/02/07 00:03:10;;;;;;;19.30;10.20;;;3.90;99.90;;;;;;5089980;28;20024;-71
2023/02/07 00:05:35;;;;;;;18.80;10.50;;;3.90;99.90;;;;;;5090044;28;20293;-69
2023/02/07 00:08:03;;;;;;;14.87;8.90;;;3.90;99.90;;;;;;5089152;28;20032;-69
2023/02/07 00:10:28;;;;;;;16.92;10.00;;;3.90;99.90;;;;;;5089436;28;20024;-70
2023/02/07 00:12:54;;;;;;;16.50;10.47;;;3.80;99.90;;;;;;5081732;28;20042;-70
2023/02/07 00:15:20;;;;;;;19.43;10.53;;;3.90;99.90;;;;;;5089633;28;20107;-70
2023/02/07 00:17:45;;;;;;;17.23;9.93;;;3.80;99.90;;;;;;5089554;28;20107;-71
2023/02/07 00:20:11;;;;;;;17.03;10.63;;;3.80;99.90;;;;;;5089575;28;20709;-69
2023/02/07 00:22:37;;;;;;;22.33;10.93;;;3.70;99.90;;;;;;5089175;28;20123;-69
2023/02/07 00:25:04;;;;;;;21.67;11.57;;;3.70;99.90;;;;;;5088347;28;20493;-69
2023/02/07 00:27:29;;;;;;;23.70;12.18;;;3.70;99.90;;;;;;5089409;28;20036;-69
2023/02/07 00:29:55;;;;;;;20.73;10.50;;;3.70;99.90;;;;;;5085621;28;20801;-69
2023/02/07 00:32:21;;;;;;;20.87;11.10;;;3.60;99.90;;;;;;5089145;28;20496;-70
2023/02/07 00:34:49;;;;;;;21.23;11.83;;;3.60;99.90;;;;;;5089589;28;20028;-71
2023/02/07 00:37:15;;;;;;;20.35;10.98;;;3.60;99.90;;;;;;5088952;28;20286;-70
2023/02/07 00:39:41;;;;;;;18.70;11.07;;;3.60;99.90;;;;;;5088078;28;20180;-70
2023/02/07 00:42:07;;;;;;;17.92;9.82;;;3.50;99.90;;;;;;5086256;28;20489;-70
2023/02/07 00:44:33;;;;;;;21.40;11.02;;;3.50;99.90;;;;;;5089137;28;20036;-70
2023/02/07 00:46:59;;;;;;;20.75;11.30;;;3.50;99.90;;;;;;5089090;28;20047;-70
2023/02/07 00:49:25;;;;;;;22.92;11.45;;;3.40;99.90;;;;;;5087452;28;20101;-70
2023/02/07 00:51:51;;;;;;;;;;;3.50;99.90;;;;;;5091052;28;20093;-70
2023/02/07 00:54:17;;;;;;;18.85;11.50;;;3.40;99.90;;;;;;5088425;28;20405;-70
2023/02/07 00:56:43;;;;;;;;;;;3.40;99.90;;;;;;5091720;28;20028;-70
2023/02/07 00:59:08;;;;;;;24.50;11.57;;;3.40;99.90;;;;;;5089082;28;19923;-70
2023/02/07 01:01:34;;;;;;;21.37;11.73;;;3.40;99.90;;;;;;5090354;28;20039;-70
2023/02/07 01:04:00;;;;;;;20.30;11.00;;;3.40;99.90;;;;;;5087385;28;20024;-71
2023/02/07 01:06:26;;;;;;;22.20;10.53;;;3.40;99.90;;;;;;5087472;28;20117;-70
2023/02/07 01:08:56;;;;;;;;;;;3.30;99.90;;;;;;5089087;28;20117;-70
2023/02/07 01:11:22;;;;;;;17.50;10.68;;;3.10;99.90;;;;;;5087498;28;19959;-70
2023/02/07 01:13:47;;;;;;;23.70;13.03;;;3.20;99.90;;;;;;5080764;28;20062;-70
2023/02/07 01:16:22;;;;;;;18.77;11.17;;;3.10;99.90;;;;;;5089218;28;20805;-70
2023/02/07 01:18:48;;;;;;;20.50;11.25;;;3.20;99.90;;;;;;5088553;28;20046;-70
2023/02/07 01:21:19;;;;;;;24.77;12.20;;;3.20;99.90;;;;;;5088719;28;20028;-70
2023/02/07 01:23:45;;;;;;;21.42;10.70;;;3.20;99.90;;;;;;5088358;28;20077;-70
2023/02/07 01:26:10;;;;;;;21.85;11.52;;;3.20;99.90;;;;;;5088496;28;20734;-69
2023/02/07 01:28:36;;;;;;;21.05;11.57;;;3.20;99.90;;;;;;5086915;28;20262;-70
2023/02/07 01:31:07;;;;;;;24.60;12.97;;;3.20;99.90;;;;;;5088486;28;20405;-69
2023/02/07 01:33:33;;;;;;;21.88;11.05;;;3.20;99.90;;;;;;5088328;28;20820;-70
2023/02/07 01:35:59;;;;;;;21.02;11.25;;;3.20;99.90;;;;;;5088369;28;20381;-70
2023/02/07 01:38:24;;;;;;;22.73;12.13;;;3.20;99.90;;;;;;5088481;28;20036;-70
2023/02/07 01:40:50;;;;;;;23.73;11.33;;;3.10;99.90;;;;;;5088224;28;20028;-69
2023/02/07 01:43:20;;;;;;;24.87;12.63;;;3.10;99.90;;;;;;5091998;28;20032;-70
2023/02/07 01:45:45;;;;;;;24.85;12.93;;;3.10;99.90;;;;;;5088499;28;20117;-70
2023/02/07 01:48:28;;;;;;;21.27;11.47;;;3.00;99.90;;;;;;5087993;28;20028;-70
2023/02/07 01:50:55;;;;;;;21.65;11.38;;;3.00;99.90;;;;;;5079788;28;20047;-70
2023/02/07 01:53:24;;;;;;;22.52;12.02;;;2.90;99.90;;;;;;5087807;28;20016;-70
2023/02/07 01:55:53;;;;;;;22.77;11.77;;;2.90;99.90;;;;;;5087940;28;20111;-69
2023/02/07 01:58:20;;;;;;;23.65;12.00;;;2.80;99.90;;;;;;5083945;28;20107;-68
2023/02/07 02:00:46;;;;;;;20.80;12.30;;;2.80;99.90;;;;;;5087966;28;20032;-70
2023/02/07 02:03:12;;;;;;;23.30;11.60;;;2.80;99.90;;;;;;5087832;28;20105;-70
2023/02/07 02:05:40;;;;;;;20.43;12.43;;;2.80;99.90;;;;;;5086610;28;20040;-70
2023/02/07 02:08:05;;;;;;;21.05;11.30;;;2.60;99.90;;;;;;5086232;28;20028;-70
2023/02/07 02:10:57;;;;;;;22.15;11.32;;;2.60;99.90;;;;;;5081204;28;20392;-69
2023/02/07 02:13:33;;;;;;;23.17;12.95;;;2.50;99.90;;;;;;5087333;28;20392;-70
2023/02/07 02:16:11;;;;;;;20.88;11.70;;;2.50;99.90;;;;;;5087270;28;20085;-70
2023/02/07 02:18:39;;;;;;;22.77;12.48;;;2.30;99.90;;;;;;5086859;28;20784;-69
2023/02/07 02:21:14;;;;;;;20.65;11.48;;;2.30;99.90;;;;;;5085880;28;20060;-70
2023/02/07 02:23:42;;;;;;;24.15;11.93;;;2.30;99.90;;;;;;5086645;28;20032;-71
2023/02/07 02:26:26;;;;;;;22.15;11.32;;;2.30;99.90;;;;;;5086794;28;20067;-68
2023/02/07 02:28:51;;;;;;;23.92;11.88;;;2.40;99.90;;;;;;5085853;28;20060;-70
2023/02/07 02:31:40;;;;;;;25.30;12.53;;;2.40;99.90;;;;;;5084065;28;20068;-70
2023/02/07 02:34:14;;;;;;;21.23;11.75;;;2.50;99.90;;;;;;5084371;28;20027;-69
2023/02/07 02:37:07;;;;;;;26.23;12.68;;;2.50;99.90;;;;;;5086579;28;20039;-69
2023/02/07 02:40:12;;;;;;;20.65;10.63;;;2.60;99.90;;;;;;5067123;28;20032;-69
2023/02/07 02:42:43;;;;;;;21.48;12.05;;;2.60;99.90;;;;;;5001428;28;20102;-70
2023/02/07 02:45:27;;;;;;;21.92;11.95;;;2.60;99.90;;;;;;5071737;28;20040;-70
2023/02/07 02:47:53;;;;;;;20.80;11.10;;;2.60;99.90;;;;;;5083175;28;20027;-70
2023/02/07 02:50:26;;;;;;;19.95;11.02;;;2.70;99.90;;;;;;5086421;28;20034;-69
2023/02/07 02:52:52;;;;;;;20.58;10.57;;;2.70;99.90;;;;;;5086540;28;20126;-70
2023/02/07 02:55:34;;;;;;;19.85;11.80;;;2.70;99.90;;;;;;5086278;28;20115;-70
2023/02/07 02:58:09;;;;;;;19.02;11.07;;;2.70;99.90;;;;;;5082387;28;20031;-69
2023/02/07 03:00:55;;;;;;;18.60;10.93;;;2.80;99.90;;;;;;5086926;28;20458;-70
2023/02/07 03:04:05;;;;;;;23.52;11.95;;;2.80;99.90;;;;;;5087037;28;20036;-70
2023/02/07 03:06:43;;;;;;;22.73;10.85;;;2.80;99.90;;;;;;5054637;28;20048;-71
2023/02/07 03:09:18;;;;;;;20.00;11.93;;;2.90;99.90;;;;;;5086310;28;20122;-70
2023/02/07 03:11:58;;;;;;;20.75;11.52;;;2.90;99.90;;;;;;5085185;28;20564;-71
2023/02/07 03:14:34;;;;;;;18.15;10.80;;;2.80;99.90;;;;;;5086696;28;20373;-69
2023/02/07 03:17:43;;;;;;;19.25;10.30;;;2.70;99.90;;;;;;5086087;28;20032;-70
2023/02/07 03:20:35;;;;;;;22.23;11.25;;;2.70;99.90;;;;;;5003112;28;20050;-70
2023/02/07 03:23:03;;;;;;;17.52;10.57;;;2.70;99.90;;;;;;5085082;28;20032;-70
2023/02/07 03:25:30;;;;;;;19.98;10.80;;;2.70;99.90;;;;;;5084590;28;20061;-69
2023/02/07 03:27:56;;;;;;;19.50;10.40;;;2.70;99.90;;;;;;5086673;28;20031;-69
2023/02/07 03:30:25;;;;;;;21.10;11.95;;;2.80;99.90;;;;;;5084451;28;20028;-69
2023/02/07 03:32:56;;;;;;;18.60;10.70;;;2.70;99.90;;;;;;5086208;28;20547;-69
2023/02/07 03:35:32;;;;;;;22.00;11.80;;;2.70;99.90;;;;;;5083949;28;20108;-69
2023/02/07 03:37:59;;;;;;;20.08;11.55;;;2.70;99.90;;;;;;5082528;28;20024;-69
2023/02/07 03:40:31;;;;;;;19.35;11.63;;;2.70;99.90;;;;;;5082521;28;20559;-70
2023/02/07 03:43:22;;;;;;;19.45;11.57;;;2.70;99.90;;;;;;5085646;28;20746;-69
2023/02/07 03:45:49;;;;;;;19.35;11.70;;;2.80;99.90;;;;;;5078905;28;20153;-69
2023/02/07 03:48:15;;;;;;;20.65;11.27;;;2.80;99.90;;;;;;5084776;28;20035;-69
2023/02/07 03:50:40;;;;;;;23.48;11.38;;;2.80;99.90;;;;;;5084169;28;20032;-69
2023/02/07 03:53:06;;;;;;;20.27;11.83;;;2.90;99.90;;;;;;5084192;28;20048;-69
2023/02/07 03:55:32;;;;;;;17.92;11.70;;;2.80;99.90;;;;;;5085595;28;20111;-69
2023/02/07 03:57:58;;;;;;;20.00;11.63;;;2.90;99.90;;;;;;5085707;28;20404;-70
2023/02/07 04:00:23;;;;;;;19.77;11.03;;;2.90;99.90;;;;;;5085836;28;20051;-69
2023/02/07 04:02:49;;;;;;;23.17;10.93;;;2.70;99.90;;;;;;5085941;28;20036;-69
2023/02/07 04:05:15;;;;;;;18.33;10.87;;;2.80;99.90;;;;;;5085949;28;22972;-70
2023/02/07 04:07:40;;;;;;;20.03;11.27;;;2.80;99.90;;;;;;5082966;28;20040;-70
2023/02/07 04:10:06;;;;;;;19.10;10.57;;;2.90;99.90;;;;;;5084547;28;20677;-70
2023/02/07 04:12:32;;;;;;;18.27;10.57;;;2.90;99.90;;;;;;5078891;28;20173;-69
2023/02/07 04:14:58;;;;;;;19.03;11.07;;;2.80;99.90;;;;;;5085837;28;20077;-70
2023/02/07 04:17:24;;;;;;;;;;;2.70;99.90;;;;;;5085937;28;20436;-69
2023/02/07 04:19:49;;;;;;;23.73;11.95;;;2.80;99.90;;;;;;5084368;28;20014;-69
2023/02/07 04:22:15;;;;;;;22.47;11.97;;;2.80;99.90;;;;;;5086079;28;20444;-69
2023/02/07 04:24:41;;;;;;;23.53;10.93;;;2.90;99.90;;;;;;5075504;28;20024;-70
2023/02/07 04:27:06;;;;;;;19.93;11.07;;;2.90;99.90;;;;;;5086234;28;20047;-70
2023/02/07 04:29:32;;;;;;;21.07;11.87;;;2.80;99.90;;;;;;5085356;28;20032;-69
2023/02/07 04:31:57;;;;;;;19.17;11.57;;;2.80;99.90;;;;;;5078203;28;20083;-70
2023/02/07 04:34:23;;;;;;;21.03;11.93;;;2.90;99.90;;;;;;5083495;28;20437;-69
2023/02/07 04:36:49;;;;;;;19.67;10.97;;;2.90;99.90;;;;;;5077062;28;20785;-68
2023/02/07 04:39:15;;;;;;;17.60;11.23;;;2.80;99.90;;;;;;5082709;28;20043;-67
2023/02/07 04:41:40;;;;;;;21.88;12.52;;;2.90;99.90;;;;;;5084804;28;20029;-66
2023/02/07 04:44:06;;;;;;;29.17;12.57;;;3.00;99.90;;;;;;5084741;28;20036;-67
2023/02/07 04:46:32;;;;;;;22.63;11.50;;;3.00;99.90;;;;;;5086281;28;20036;-68
2023/02/07 04:48:57;;;;;;;20.93;12.60;;;3.00;99.90;;;;;;5088584;28;20036;-67
2023/02/07 04:51:23;;;;;;;22.60;12.57;;;3.00;99.90;;;;;;5088347;28;20039;-67
2023/02/07 04:53:49;;;;;;;22.95;11.98;;;3.00;99.90;;;;;;5087946;28;20036;-71
2023/02/07 04:56:15;;;;;;;18.50;10.82;;;3.00;99.90;;;;;;5087189;28;20050;-68
2023/02/07 04:58:40;;;;;;;21.73;11.05;;;3.00;99.90;;;;;;5081320;28;20043;-71
2023/02/07 05:01:06;;;;;;;27.33;11.83;;;3.00;99.90;;;;;;5088519;28;20463;-70
2023/02/07 05:03:32;;;;;;;21.70;11.38;;;3.00;99.90;;;;;;5088398;28;20372;-68
2023/02/07 05:05:58;;;;;;;22.60;11.65;;;3.00;99.90;;;;;;5088490;28;20169;-69
2023/02/07 05:08:23;;;;;;;22.83;12.33;;;3.00;99.90;;;;;;5087442;28;20456;-71
2023/02/07 05:10:55;;;;;;;21.63;12.67;;;3.00;99.90;;;;;;5088243;28;20044;-71
2023/02/07 05:13:22;;;;;;;20.95;12.23;;;3.10;99.90;;;;;;5086928;28;20039;-70
2023/02/07 05:15:48;;;;;;;19.58;12.13;;;3.10;99.90;;;;;;5087889;28;20028;-69
2023/02/07 05:18:14;;;;;;;29.30;12.15;;;3.00;99.90;;;;;;5088563;28;20035;-69
2023/02/07 05:20:40;;;;;;;19.83;11.13;;;3.00;99.90;;;;;;5086471;28;20055;-68
2023/02/07 05:23:05;;;;;;;20.20;11.23;;;3.00;99.90;;;;;;5088441;28;20787;-70
2023/02/07 05:25:31;;;;;;;20.35;12.38;;;3.00;99.90;;;;;;5087810;28;20442;-72
2023/02/07 05:27:56;;;;;;;21.83;12.50;;;3.10;99.90;;;;;;5086549;28;20047;-71
2023/02/07 05:30:22;;;;;;;21.27;12.40;;;3.10;99.90;;;;;;5086977;28;20024;-71
2023/02/07 05:33:03;;;;;;;19.00;11.00;;;3.10;99.90;;;;;;5086664;28;20032;-71
2023/02/07 05:35:33;;;;;;;22.73;12.27;;;3.10;99.90;;;;;;5085392;28;20031;-71
2023/02/07 05:37:59;;;;;;;27.17;13.40;;;3.10;99.90;;;;;;5086966;28;20035;-70
2023/02/07 05:40:25;;;;;;;25.95;13.45;;;3.10;99.90;;;;;;5087193;28;20515;-70
2023/02/07 05:42:51;;;;;;;21.83;12.67;;;3.00;99.90;;;;;;5087099;28;20040;-69
2023/02/07 05:45:17;;;;;;;25.65;11.95;;;2.90;99.90;;;;;;5087004;28;20107;-70
2023/02/07 05:47:42;;;;;;;21.98;12.98;;;2.80;99.90;;;;;;5086028;28;20032;-69
2023/02/07 05:50:08;;;;;;;23.07;12.57;;;2.80;99.90;;;;;;5087214;28;20039;-69
2023/02/07 05:52:34;;;;;;;21.77;13.23;;;2.90;99.90;;;;;;5086689;28;20040;-68
2023/02/07 05:54:59;;;;;;;22.90;13.30;;;2.80;99.90;;;;;;5087128;28;20335;-68
2023/02/07 05:57:25;;;;;;;25.50;14.40;;;2.90;99.90;;;;;;5086219;28;20051;-70
2023/02/07 05:59:51;;;;;;;25.43;13.83;;;2.90;99.90;;;;;;5086236;28;20396;-70
2023/02/07 06:02:16;;;;;;;27.05;13.98;;;2.70;99.90;;;;;;5087311;28;20032;-69
2023/02/07 06:04:42;;;;;;;24.20;13.75;;;2.70;99.90;;;;;;5085214;28;20557;-69
2023/02/07 06:07:08;;;;;;;24.70;13.80;;;2.80;99.90;;;;;;5086085;28;20035;-69
2023/02/07 06:09:33;;;;;;;26.00;14.00;;;2.60;99.90;;;;;;5086721;28;20439;-68
2023/02/07 06:11:59;;;;;;;20.83;12.55;;;2.60;99.90;;;;;;5086434;28;20043;-69
2023/02/07 06:14:25;;;;;;;26.60;14.60;;;2.60;99.90;;;;;;5086151;28;20404;-70
2023/02/07 06:16:50;;;;;;;26.17;14.40;;;2.60;99.90;;;;;;5086809;28;20028;-70
2023/02/07 06:19:16;;;;;;;24.53;13.97;;;2.60;99.90;;;;;;5085089;28;20044;-70
2023/02/07 06:21:41;;;;;;;25.77;14.17;;;2.50;99.90;;;;;;5086720;28;20035;-70
2023/02/07 06:24:07;;;;;;;27.13;15.18;;;2.50;99.90;;;;;;5086492;28;20046;-70
2023/02/07 06:26:33;;;;;;;29.83;14.70;;;2.50;99.90;;;;;;5085427;28;20043;-71
2023/02/07 06:28:59;;;;;;;27.10;14.70;;;2.50;99.90;;;;;;5082737;28;20063;-72
2023/02/07 06:31:25;;;;;;;30.77;15.07;;;2.50;99.90;;;;;;5086231;28;20058;-71
2023/02/07 06:33:51;;;;;;;29.40;14.73;;;2.50;99.90;;;;;;5082676;28;20043;-70
2023/02/07 06:36:16;;;;;;;26.75;14.13;;;2.40;99.90;;;;;;5086678;28;20035;-70
2023/02/07 06:38:42;;;;;;;26.98;15.40;;;2.30;99.90;;;;;;5084221;28;20026;-69
2023/02/07 06:41:10;;;;;;;25.83;14.43;;;2.20;99.90;;;;;;5083887;28;20040;-69
2023/02/07 06:43:36;;;;;;;25.67;14.18;;;2.10;99.90;;;;;;5083500;28;20033;-69
2023/02/07 06:46:03;;;;;;;28.67;15.20;;;2.00;99.90;;;;;;5084931;28;20109;-69
2023/02/07 06:48:28;;;;;;;28.95;15.82;;;1.80;99.90;;;;;;5082494;28;20036;-69
2023/02/07 06:50:54;;;;;;;26.47;15.47;;;1.80;99.90;;;;;;5083325;28;20050;-68
2023/02/07 06:53:19;;;;;;;28.73;15.17;;;1.70;99.90;;;;;;5085476;28;20413;-69
2023/02/07 06:55:45;;;;;;;28.10;15.33;;;1.70;99.90;;;;;;5084912;28;20040;-68
2023/02/07 06:58:10;;;;;;;26.60;15.10;;;1.70;99.90;;;;;;5085968;28;20293;-69
2023/02/07 07:00:36;;;;;;;32.10;16.07;;;1.70;99.90;;;;;;5083930;28;21006;-69
2023/02/07 07:03:02;;;;;;;36.07;16.53;;;1.70;99.90;;;;;;5085500;28;20024;-69
2023/02/07 07:05:28;;;;;;;;;;;1.70;99.90;;;;;;5086090;28;20085;-68
2023/02/07 07:07:55;;;;;;;31.83;16.95;;;1.60;99.90;;;;;;5085409;28;19908;-69
2023/02/07 07:10:20;;;;;;;;;;;1.60;99.90;;;;;;5083091;28;20024;-70
2023/02/07 07:12:46;;;;;;;30.58;14.55;;;1.60;99.90;;;;;;5085530;28;19918;-70
2023/02/07 07:15:13;;;;;;;30.67;16.35;;;1.60;99.90;;;;;;5086079;28;20042;-72
2023/02/07 07:17:38;;;;;;;29.95;16.20;;;1.60;99.90;;;;;;5085806;28;20044;-72
2023/02/07 07:20:06;;;;;;;30.83;17.00;;;1.60;99.90;;;;;;5082946;28;20039;-71
2023/02/07 07:22:32;;;;;;;35.78;16.85;;;1.60;99.90;;;;;;5085113;28;20032;-69
2023/02/07 07:24:58;;;;;;;36.97;18.90;;;1.70;99.90;;;;;;5085247;28;20023;-70
2023/02/07 07:27:23;;;;;;;35.73;17.23;;;1.70;99.90;;;;;;5082351;28;20404;-72
2023/02/07 07:29:49;;;;;;;33.93;18.23;;;1.70;99.90;;;;;;5083646;28;20028;-71
2023/02/07 07:32:15;;;;;;;30.65;16.73;;;1.70;99.90;;;;;;5084524;28;20082;-70
2023/02/07 07:34:40;;;;;;;32.67;17.60;;;1.60;99.90;;;;;;5076938;28;20028;-69
2023/02/07 07:37:06;;;;;;;33.15;18.40;;;1.60;99.90;;;;;;5081855;28;20849;-71
2023/02/07 07:39:32;;;;;;;32.30;18.20;;;1.70;99.90;;;;;;5084680;28;20016;-70
2023/02/07 07:41:58;;;;;;;36.00;19.70;;;1.80;99.90;;;;;;5084019;28;20071;-71
2023/02/07 07:44:24;;;;;;;38.17;17.70;;;1.80;99.90;;;;;;5085021;28;20036;-72
2023/02/07 07:46:49;;;;;;;33.13;18.50;;;1.70;99.90;;;;;;5084732;28;20048;-73
2023/02/07 07:49:15;;;;;;;33.83;19.20;;;1.80;99.90;;;;;;5086040;28;20113;-73
2023/02/07 07:51:41;;;;;;;31.08;17.23;;;1.80;99.90;;;;;;5084366;28;20054;-67
2023/02/07 07:54:07;;;;;;;40.30;18.05;;;1.80;99.90;;;;;;5085415;28;20062;-71
2023/02/07 07:56:34;;;;;;;32.77;18.00;;;1.80;99.90;;;;;;5084505;28;20381;-70
2023/02/07 07:59:00;;;;;;;37.33;17.38;;;2.10;99.90;;;;;;5085640;28;20805;-68
2023/02/07 08:01:26;;;;;;;41.80;19.02;;;2.30;99.90;;;;;;5085107;28;20671;-69
2023/02/07 08:03:52;;;;;;;38.28;17.83;;;2.80;99.90;;;;;;5085277;28;20036;-70
2023/02/07 08:06:18;;;;;;;28.40;15.90;;;3.10;99.90;;;;;;5083113;28;20032;-71
2023/02/07 08:08:44;;;;;;;27.38;15.85;;;3.10;99.90;;;;;;5083942;28;20028;-68
2023/02/07 08:11:10;;;;;;;27.58;15.15;;;3.40;99.90;;;;;;5083381;28;20134;-69
2023/02/07 08:13:36;;;;;;;24.15;14.23;;;5.20;99.90;;;;;;5084817;28;20032;-68
2023/02/07 08:16:04;;;;;;;28.60;14.40;;;6.00;99.70;;;;;;5085445;28;20500;-69
2023/02/07 08:18:29;;;;;;;29.65;14.88;;;6.70;98.90;;;;;;5081016;28;20020;-68
2023/02/07 08:20:55;;;;;;;28.90;15.30;;;6.90;97.30;;;;;;5083094;28;20510;-69
2023/02/07 08:23:21;;;;;;;26.10;14.63;;;6.00;98.70;;;;;;5086250;28;20050;-69
2023/02/07 08:25:48;;;;;;;24.17;14.18;;;5.50;99.90;;;;;;5088839;28;20024;-69
2023/02/07 08:28:15;;;;;;;26.05;14.85;;;4.80;99.90;;;;;;5087683;28;20046;-68
2023/02/07 08:30:41;;;;;;;27.65;16.05;;;4.60;99.90;;;;;;5087440;28;20426;-68
2023/02/07 08:33:07;;;;;;;24.50;14.70;;;4.40;99.90;;;;;;5088767;28;20043;-69
2023/02/07 08:35:32;;;;;;;22.35;14.52;;;4.20;99.90;;;;;;5085581;28;20016;-70
2023/02/07 08:37:58;;;;;;;24.67;15.43;;;4.10;99.90;;;;;;5086969;28;20040;-69
2023/02/07 08:40:25;;;;;;;27.43;14.87;;;4.30;99.90;;;;;;5087738;28;20078;-71
2023/02/07 08:42:51;;;;;;;26.88;15.95;;;5.30;99.90;;;;;;5086805;28;20085;-72
2023/02/07 08:45:17;;;;;;;21.53;13.37;;;6.80;98.90;;;;;;5088870;28;20476;-71
2023/02/07 08:47:44;;;;;;;23.20;13.57;;;7.70;96.30;;;;;;5104560;28;20028;-69
2023/02/07 08:50:14;;;;;;;27.35;14.32;;;7.70;95.90;;;;;;5089216;28;20032;-71
2023/02/07 08:52:40;;;;;;;31.17;14.70;;;7.70;95.80;;;;;;5088140;28;20118;-70
2023/02/07 08:55:06;;;;;;;24.95;14.60;;;9.50;93.00;;;;;;5088569;28;20020;-72
2023/02/07 08:57:32;;;;;;;22.30;13.45;;;11.10;89.90;;;;;;5088619;28;20024;-71
2023/02/07 08:59:58;;;;;;;27.80;13.63;;;12.30;81.80;;;;;;5088132;28;20024;-68
2023/02/07 09:02:24;;;;;;;28.70;14.38;;;13.00;77.80;;;;;;5086959;28;20535;-68
2023/02/07 09:04:50;;;;;;;25.25;13.02;;;13.90;72.40;;;;;;5087121;28;20115;-70
2023/02/07 09:07:16;;;;;;;20.48;12.85;;;14.80;68.20;;;;;;5087371;28;20054;-68
2023/02/07 09:09:42;;;;;;;21.60;12.75;;;14.90;65.90;;;;;;5086132;28;20036;-68
2023/02/07 09:12:09;;;;;;;38.10;12.57;;;15.30;63.50;;;;;;5087114;28;20040;-68
2023/02/07 09:14:35;;;;;;;21.90;13.73;;;15.00;62.70;;;;;;5087272;28;20024;-68
2023/02/07 09:17:01;;;;;;;;;;;15.00;63.20;;;;;;5088841;28;20020;-68
2023/02/07 09:19:27;;;;;;;17.35;11.48;;;15.20;62.20;;;;;;5087473;28;19961;-68
2023/02/07 09:21:52;;;;;;;21.33;11.83;;;15.60;61.70;;;;;;5087494;28;20926;-68
2023/02/07 09:24:19;;;;;;;25.13;11.50;;;16.20;57.70;;;;;;5086618;28;20090;-69
2023/02/07 09:26:45;;;;;;;20.77;11.70;;;16.50;55.70;;;;;;5086692;28;20028;-68
2023/02/07 09:29:12;;;;;;;20.77;12.07;;;17.10;53.80;;;;;;5084789;28;20054;-68
2023/02/07 09:31:38;;;;;;;18.13;12.07;;;17.30;52.90;;;;;;5086109;28;20036;-69
2023/02/07 09:34:04;;;;;;;17.03;11.37;;;17.30;52.50;;;;;;5086323;28;20024;-70
2023/02/07 09:36:30;;;;;;;18.43;11.60;;;17.30;51.70;;;;;;5086561;28;20055;-69
2023/02/07 09:38:56;;;;;;;19.38;12.25;;;16.70;53.20;;;;;;5087717;28;20309;-72
2023/02/07 09:41:28;;;;;;;14.90;10.75;;;16.10;56.00;;;;;;5087432;28;20047;-70
2023/02/07 09:44:31;;;;;;;21.50;12.13;;;16.50;54.10;;;;;;5087384;28;20135;-70
2023/02/07 09:47:01;;;;;;;19.55;11.48;;;15.60;55.50;;;;;;5086221;28;20557;-72
2023/02/07 09:49:35;;;;;;;17.98;11.02;;;14.40;57.70;;;;;;5087480;28;20567;-70
2023/02/07 09:52:03;;;;;;;19.08;12.18;;;13.90;59.80;;;;;;5085925;28;20081;-71
2023/02/07 09:54:43;;;;;;;18.98;11.43;;;12.60;62.40;;;;;;5086330;28;20024;-71
2023/02/07 09:57:43;;;;;;;17.48;10.85;;;12.90;65.10;;;;;;5086753;28;20509;-72
2023/02/07 10:00:24;;;;;;;18.85;12.25;;;12.60;64.90;;;;;;5086058;28;20425;-70
2023/02/07 10:03:15;;;;;;;17.85;12.15;;;13.10;63.70;;;;;;5085437;28;20024;-72
2023/02/07 10:05:42;;;;;;;19.92;12.85;;;13.90;59.40;;;;;;5086651;28;20032;-68
2023/02/07 10:08:13;;;;;;;21.70;12.23;;;15.40;56.20;;;;;;5087646;28;20032;-71
2023/02/07 10:11:02;;;;;;;21.13;12.48;;;15.00;54.50;;;;;;5087019;28;20428;-68
2023/02/07 10:13:48;;;;;;;19.55;11.73;;;13.60;58.30;;;;;;5084924;28;20058;-70
2023/02/07 10:16:32;;;;;;;21.92;12.43;;;11.70;63.60;;;;;;5101182;28;20028;-68
2023/02/07 10:19:19;;;;;;;22.17;11.25;;;10.50;70.60;;;;;;5087577;28;20044;-68
2023/02/07 10:22:14;;;;;;;20.90;13.52;;;10.20;73.10;;;;;;5087059;28;20031;-68
2023/02/07 10:24:58;;;;;;;17.10;12.18;;;12.30;67.50;;;;;;5086117;28;20024;-69
2023/02/07 10:27:35;;;;;;;19.42;12.85;;;14.60;58.00;;;;;;5086397;28;20723;-68
2023/02/07 10:30:26;;;;;;;19.33;12.85;;;13.60;60.00;;;;;;5084839;28;20043;-71
2023/02/07 10:32:53;;;;;;;18.02;12.60;;;14.10;57.00;;;;;;5086111;28;20101;-69
2023/02/07 10:35:21;;;;;;;18.15;12.15;;;13.70;56.80;;;;;;5083001;28;20456;-69
2023/02/07 10:37:52;;;;;;;27.52;12.98;;;12.70;58.60;;;;;;5083913;28;20107;-70
2023/02/07 10:40:24;;;;;;;18.58;12.05;;;11.10;66.20;;;;;;5087004;28;20081;-67
2023/02/07 10:43:05;;;;;;;17.88;11.52;;;10.10;70.20;;;;;;5087345;28;20028;-70
2023/02/07 10:45:31;;;;;;;21.33;11.75;;;9.40;72.90;;;;;;5084263;28;20408;-67
2023/02/07 10:47:57;;;;;;;26.47;13.60;;;9.10;77.30;;;;;;5086218;28;20043;-68
2023/02/07 10:50:24;;;;;;;23.10;13.20;;;9.00;78.80;;;;;;5086159;28;20143;-68
2023/02/07 10:52:55;;;;;;;22.02;13.25;;;8.80;80.80;;;;;;5086414;28;20412;-69
2023/02/07 10:55:45;;;;;;;21.27;12.48;;;8.70;82.20;;;;;;5085727;28;20032;-70
2023/02/07 10:58:22;;;;;;;21.17;12.68;;;8.60;81.90;;;;;;5080769;28;20103;-69
2023/02/07 11:00:52;;;;;;;;;;;8.30;82.30;;;;;;5086647;28;20061;-70
2023/02/07 11:03:21;;;;;;;19.02;12.30;;;8.30;84.80;;;;;;5081709;28;19961;-69
2023/02/07 11:06:06;;;;;;;19.98;12.93;;;9.00;81.20;;;;;;5083619;28;20054;-68
2023/02/07 11:08:34;;;;;;;20.42;12.75;;;9.30;77.70;;;;;;5083377;28;20020;-69
2023/02/07 11:11:23;;;;;;;20.20;12.75;;;8.60;81.00;;;;;;5086419;28;20032;-68
2023/02/07 11:13:52;;;;;;;21.50;12.10;;;8.30;81.80;;;;;;5085115;28;20089;-69
2023/02/07 11:16:20;;;;;;;21.83;12.77;;;8.10;81.70;;;;;;5085789;28;20508;-68
2023/02/07 11:18:52;;;;;;;20.45;12.35;;;8.00;84.40;;;;;;5085858;28;20028;-69
2023/02/07 11:21:40;;;;;;;21.48;13.13;;;7.80;83.90;;;;;;5085193;28;20039;-68
2023/02/07 11:24:14;;;;;;;19.52;13.18;;;7.70;85.10;;;;;;5085302;28;20423;-69
2023/02/07 11:26:52;;;;;;;23.63;12.68;;;7.60;85.30;;;;;;5085239;28;20036;-69
2023/02/07 11:29:19;;;;;;;22.00;13.10;;;7.60;84.20;;;;;;5083549;28;20032;-70
2023/02/07 11:31:46;;;;;;;21.65;12.93;;;7.60;83.90;;;;;;5086070;28;20466;-69
2023/02/07 11:34:27;;;;;;;;;;;7.40;83.80;;;;;;5086088;28;20476;-68
2023/02/07 11:36:53;;;;;;;24.00;13.45;;;7.50;85.50;;;;;;5080954;28;19912;-67
2023/02/07 11:39:21;;;;;;;18.88;12.27;;;7.50;87.90;;;;;;5078016;28;20443;-66
2023/02/07 11:41:59;;;;;;;19.65;11.13;;;7.50;81.00;;;;;;5082499;28;20035;-67
2023/02/07 11:44:26;;;;;;;20.35;13.55;;;7.50;80.50;;;;;;5083893;28;20032;-67
2023/02/07 11:46:55;;;;;;;20.65;12.90;;;7.50;85.30;;;;;;5083187;28;20016;-67
2023/02/07 11:49:25;;;;;;;20.55;13.98;;;7.50;86.10;;;;;;5082380;28;20030;-67
2023/02/07 11:51:56;;;;;;;23.10;13.20;;;7.50;86.80;;;;;;5084034;28;20040;-67
2023/02/07 11:54:23;;;;;;;21.10;13.95;;;7.50;87.60;;;;;;5083346;28;20016;-67
2023/02/07 11:56:59;;;;;;;26.90;13.27;;;7.50;87.00;;;;;;5090068;28;20051;-70
2023/02/07 11:59:31;;;;;;;22.85;14.15;;;7.60;87.60;;;;;;5086061;28;20114;-70
2023/02/07 12:02:00;;;;;;;20.02;13.63;;;7.70;86.00;;;;;;5086382;28;20043;-69
2023/02/07 12:04:35;;;;;;;20.25;13.25;;;7.50;83.00;;;;;;5088968;28;20028;-69
2023/02/07 12:07:21;;;;;;;28.52;14.38;;;7.50;86.50;;;;;;5085953;28;20070;-69
2023/02/07 12:09:52;;;;;;;24.08;12.82;;;7.60;85.00;;;;;;5088229;28;20028;-69
2023/02/07 12:12:38;;;;;;;24.15;13.77;;;7.60;84.30;;;;;;5087061;28;20457;-69
2023/02/07 12:15:31;;;;;;;23.10;12.68;;;7.60;85.30;;;;;;5088750;28;20024;-69
2023/02/07 12:17:57;;;;;;;20.70;11.93;;;7.70;83.30;;;;;;5087971;28;20032;-70
2023/02/07 12:20:31;;;;;;;19.50;11.20;;;7.80;83.70;;;;;;5088530;28;20038;-69
2023/02/07 12:23:04;;;;;;;18.15;11.18;;;7.80;79.40;;;;;;5087265;28;20024;-69
2023/02/07 12:25:37;;;;;;;21.15;11.70;;;7.80;80.90;;;;;;5087882;28;20035;-69
2023/02/07 12:28:18;;;;;;;17.08;11.23;;;8.00;80.40;;;;;;5086603;28;20139;-69
2023/02/07 12:30:47;;;;;;;18.88;11.18;;;7.90;80.20;;;;;;5088820;28;20138;-69
2023/02/07 12:33:21;;;;;;;24.85;11.38;;;8.00;79.80;;;;;;5088091;28;20110;-69
2023/02/07 12:36:09;;;;;;;17.33;10.43;;;8.10;79.40;;;;;;5087156;28;20628;-70
2023/02/07 12:38:53;;;;;;;19.40;10.52;;;8.20;79.10;;;;;;5080214;28;20055;-69
2023/02/07 12:41:28;;;;;;;24.40;10.75;;;8.20;78.00;;;;;;5084710;28;20024;-69
2023/02/07 12:44:06;;;;;;;20.92;10.82;;;8.20;77.40;;;;;;5083918;28;20029;-68
2023/02/07 12:47:14;;;;;;;17.67;10.75;;;8.30;77.20;;;;;;5086927;28;20028;-70
2023/02/07 12:49:39;;;;;;;18.67;9.95;;;8.40;78.40;;;;;;5075681;28;20040;-70
2023/02/07 12:52:18;;;;;;;18.77;11.17;;;8.40;75.30;;;;;;5086721;28;20059;-70